Franklin, MO (65250)

5:26 AM CDT on September 20, 2014 (GMT -0500)
Viertel Memorial | Change Station
CLOSE
Current Station
Airport
Location: Boonville,
Elevation: 715 ft
Nearby Weather Stations

Elev 715 ft 38.95 °N, 92.68 °W | Updated 11 minutes ago

Clear
Clear
64 °F
Feels Like 64 °F
N
0
Wind Variable Wind from North

Today
High -- | Low -- °F
--% Chance of Precip.
Yesterday
High -- | Low -- °F
Precip. -- in
6:57 AM 7:11 PM
Waning Crescent, 13% visible
Pressure 29.96 in
Visibility 7.0 miles
Clouds Clear
Dew Point 63 °F
Humidity 99%
Rainfall 0.00 in
Snow Depth Not available.
UV 0 out of 12
Pollen 6.70 out of 12
Air Quality Not available.
Flu Activity Not available.
METAR KVER 201015Z AUTO 00000KT 7SM CLR 18/17 A2996 RMK AO2 T01750174

More Conditions Fewer Conditions

Pressure 29.96 in
Visibility 7.0 miles
Clouds Clear
Dew Point 63 °F
Humidity 99%
Rainfall 0.00 in
Snow Depth Not available.
UV 0 out of 12
Pollen 6.70 out of 12
Air Quality Not available.
Flu Activity Not available.
METAR KVER 201015Z AUTO 00000KT 7SM CLR 18/17 A2996 RMK AO2 T01750174

More Conditions Fewer Conditions

10-Day Weather Forecast

Almanac

Astronomy

Sep. 20, 2014 Rise Set
Actual Time 6:57 AM CDT 7:11 PM CDT
Civil Twilight 6:30 AM CDT 7:38 PM CDT
Nautical Twilight 5:59 AM CDT 8:09 PM CDT
Astronomical Twilight 5:27 AM CDT 8:41 PM CDT
Moon 3:38 AM CDT 5:14 PM CDT
Length of Visible Light 13h 07m
Length of Day
12h 14m
Tomorrow will be 2m 31s shorter.
Waning Crescent, 13% of the Moon is Illuminated
Today
Waning Crescent
Sep 24
New
Oct 1
First Quarter
Oct 8
Full
Oct 15
Last Quarter

Today's Extremes

State Highs State Lows

Community

WunderPhotos

Upload Photos

1,754,827 photos uploaded!

WunderBlogs® & News

Nearby

Snow Depth

Station Depth Elevation
No new snow has been reported.

Earthquake Activity

City Distance Mag. Time & Date
No recent earthquake activity has been reported nearby.
Minimum magnitude displayed is 2.5.

Coastal Water Temperatures

Place Temperature
No Stations Reporting

Nearby Weather Stations